createdAt,value
2022-11-06T00:00:44.426Z,47.50
2022-11-06T00:03:13.288Z,42.67
2022-11-06T00:06:00.639Z,47.57
2022-11-06T00:08:31.862Z,263.13
2022-11-06T00:11:00.997Z,49.73
2022-11-06T00:13:32.339Z,42.80
2022-11-06T00:16:05.165Z,51.80
2022-11-06T00:18:34.232Z,54.23
2022-11-06T00:21:08.927Z,64.80
2022-11-06T00:23:37.684Z,58.20
2022-11-06T00:26:08.289Z,54.90
2022-11-06T00:28:38.924Z,53.30
2022-11-06T00:31:09.013Z,48.60
2022-11-06T00:33:38.337Z,55.57
2022-11-06T00:36:08.913Z,68.38
2022-11-06T00:38:37.542Z,41.10
2022-11-06T00:41:07.563Z,50.30
2022-11-06T00:43:37.981Z,59.17
2022-11-06T00:46:08.348Z,54.53
2022-11-06T00:48:38.173Z,46.27
2022-11-06T00:51:07.657Z,56.17
2022-11-06T00:53:36.767Z,53.73
2022-11-06T00:56:06.992Z,54.87
2022-11-06T00:58:37.411Z,51.07
2022-11-06T01:01:10.774Z,53.00
2022-11-06T01:03:40.551Z,46.47
2022-11-06T01:06:10.946Z,53.23
2022-11-06T01:08:40.306Z,44.00
2022-11-06T01:11:10.844Z,45.17
2022-11-06T01:13:41.308Z,50.43
2022-11-06T01:16:12.801Z,49.13
2022-11-06T01:18:43.208Z,44.57
2022-11-06T01:21:13.616Z,46.07
2022-11-06T01:23:43.045Z,42.00
2022-11-06T01:26:13.310Z,42.20
2022-11-06T01:28:43.918Z,41.30
2022-11-06T01:31:14.894Z,44.40
2022-11-06T01:33:44.322Z,41.63
2022-11-06T01:36:14.053Z,44.37
2022-11-06T01:38:43.215Z,40.97
2022-11-06T01:41:14.729Z,39.57
2022-11-06T01:43:51.068Z,44.03
2022-11-06T01:46:20.915Z,40.53
2022-11-06T01:48:53.729Z,40.17
2022-11-06T01:51:25.693Z,39.23
2022-11-06T01:53:54.958Z,45.83
2022-11-06T01:56:24.684Z,36.87
2022-11-06T01:58:57.837Z,33.97
2022-11-06T02:01:26.817Z,36.03
2022-11-06T02:04:02.390Z,34.07
2022-11-06T02:06:30.988Z,36.43
2022-11-06T02:09:19.010Z,38.03
2022-11-06T02:11:52.213Z,32.20
2022-11-06T02:14:38.863Z,34.50
2022-11-06T02:17:14.249Z,34.70
2022-11-06T02:19:55.974Z,33.77
2022-11-06T02:22:47.231Z,30.57
2022-11-06T02:25:20.887Z,31.77
2022-11-06T02:27:58.313Z,31.00
2022-11-06T02:30:27.061Z,30.20
2022-11-06T02:33:00.160Z,34.93
2022-11-06T02:35:32.712Z,30.93
2022-11-06T02:38:06.817Z,29.60
2022-11-06T02:40:39.779Z,28.40
2022-11-06T02:43:11.418Z,28.67
2022-11-06T02:45:46.847Z,28.23
2022-11-06T02:48:18.713Z,29.00
2022-11-06T02:50:51.206Z,26.30
2022-11-06T02:53:25.088Z,28.10
2022-11-06T02:55:58.159Z,27.87
2022-11-06T02:58:34.532Z,29.53
2022-11-06T03:01:09.254Z,26.63
2022-11-06T03:03:43.470Z,27.67
2022-11-06T03:06:14.940Z,37.77
2022-11-06T03:08:47.596Z,32.97
2022-11-06T03:11:21.675Z,30.50
2022-11-06T03:13:57.969Z,27.83
2022-11-06T03:16:34.868Z,33.47
2022-11-06T03:19:12.684Z,26.40
2022-11-06T03:21:54.898Z,26.17
2022-11-06T03:24:32.773Z,29.27
2022-11-06T03:27:07.153Z,25.57
2022-11-06T03:29:42.075Z,29.30
2022-11-06T03:32:19.524Z,26.57
2022-11-06T03:34:54.085Z,27.00
2022-11-06T03:37:29.780Z,27.20
2022-11-06T03:40:02.926Z,25.60
2022-11-06T03:42:32.467Z,26.43
2022-11-06T03:45:07.899Z,26.17
2022-11-06T03:47:40.079Z,26.60
2022-11-06T03:50:15.529Z,27.17
2022-11-06T03:52:51.047Z,29.37
2022-11-06T03:55:24.041Z,27.87
2022-11-06T03:57:55.364Z,27.60
2022-11-06T04:00:25.785Z,29.70
2022-11-06T04:03:05.216Z,29.67
2022-11-06T04:05:39.663Z,29.80
2022-11-06T04:08:28.672Z,29.03
2022-11-06T04:11:19.318Z,27.93
2022-11-06T04:13:58.661Z,28.87
2022-11-06T04:16:34.098Z,24.80
2022-11-06T04:19:02.958Z,26.47
2022-11-06T04:21:53.876Z,27.90
2022-11-06T04:24:51.665Z,26.47
2022-11-06T04:27:30.958Z,26.97
2022-11-06T04:30:07.613Z,24.87
2022-11-06T04:33:03.033Z,24.83
2022-11-06T04:35:44.709Z,26.87
2022-11-06T04:38:19.765Z,29.60
2022-11-06T04:40:55.510Z,29.83
2022-11-06T04:43:30.563Z,38.87
2022-11-06T04:46:01.537Z,49.60
2022-11-06T04:48:32.533Z,40.70
2022-11-06T04:51:03.463Z,42.37
2022-11-06T04:53:33.659Z,38.33
2022-11-06T04:56:08.136Z,34.23
2022-11-06T04:58:36.712Z,31.87
2022-11-06T05:01:05.619Z,29.57
2022-11-06T05:03:36.009Z,27.67
2022-11-06T05:06:04.887Z,29.40
2022-11-06T05:08:33.618Z,25.80
2022-11-06T05:11:02.290Z,31.63
2022-11-06T05:13:30.957Z,32.97
2022-11-06T05:16:00.718Z,29.80
2022-11-06T05:18:30.023Z,39.67
2022-11-06T05:21:20.074Z,47.60
2022-11-06T05:23:48.771Z,44.20
2022-11-06T05:26:17.866Z,45.67
2022-11-06T05:28:46.658Z,38.63
2022-11-06T05:31:15.257Z,40.07
2022-11-06T05:33:43.933Z,42.50
2022-11-06T05:36:14.270Z,40.33
2022-11-06T05:38:42.878Z,40.45
2022-11-06T05:41:11.837Z,37.47
2022-11-06T05:43:40.719Z,29.23
2022-11-06T05:46:29.643Z,28.30
2022-11-06T05:48:58.137Z,29.00
2022-11-06T05:51:28.269Z,28.90
2022-11-06T05:53:57.075Z,29.07
2022-11-06T05:56:25.888Z,28.60
2022-11-06T05:58:54.690Z,31.83
2022-11-06T06:01:23.334Z,35.43
2022-11-06T06:03:52.060Z,33.40
2022-11-06T06:06:22.405Z,30.23
2022-11-06T06:08:52.434Z,29.50
2022-11-06T06:11:21.069Z,31.10
2022-11-06T06:13:49.725Z,31.03
2022-11-06T06:16:18.369Z,34.00
2022-11-06T06:18:46.952Z,32.57
2022-11-06T06:21:15.639Z,47.70
2022-11-06T06:23:44.298Z,39.00
2022-11-06T06:26:14.508Z,34.27
2022-11-06T06:28:43.102Z,32.53
2022-11-06T06:31:13.055Z,30.27
2022-11-06T06:33:41.677Z,32.10
2022-11-06T06:36:11.204Z,45.97
2022-11-06T06:38:39.897Z,30.83
2022-11-06T06:41:10.428Z,32.53
2022-11-06T06:43:40.437Z,32.50
2022-11-06T06:46:09.350Z,34.57
2022-11-06T06:48:38.095Z,34.10
2022-11-06T06:51:08.143Z,33.77
2022-11-06T06:53:37.626Z,33.73
2022-11-06T06:56:06.764Z,32.27
2022-11-06T06:58:35.833Z,32.83
2022-11-06T07:01:10.530Z,32.67
2022-11-06T07:03:40.342Z,33.77
2022-11-06T07:06:09.320Z,37.30
2022-11-06T07:08:37.904Z,38.20
2022-11-06T07:11:08.681Z,42.40
2022-11-06T07:13:37.893Z,42.60
2022-11-06T07:16:09.669Z,40.70
2022-11-06T07:18:39.525Z,43.13
2022-11-06T07:21:09.993Z,48.63
2022-11-06T07:23:39.400Z,39.70
2022-11-06T07:26:08.496Z,40.43
2022-11-06T07:28:40.456Z,40.90
2022-11-06T07:31:12.633Z,39.97
2022-11-06T07:33:41.254Z,41.70
2022-11-06T07:36:12.057Z,37.17
2022-11-06T07:38:42.592Z,45.60
2022-11-06T07:41:13.707Z,40.07
2022-11-06T07:43:42.688Z,40.07
2022-11-06T07:46:14.624Z,43.87
2022-11-06T07:48:43.548Z,41.90
2022-11-06T07:51:13.113Z,45.03
2022-11-06T07:53:41.983Z,154.55
2022-11-06T07:56:10.974Z,32.47
2022-11-06T07:58:40.162Z,47.97
2022-11-06T08:01:17.955Z,51.10
2022-11-06T08:03:49.076Z,47.33
2022-11-06T08:06:17.834Z,47.20
2022-11-06T08:08:46.515Z,41.57
2022-11-06T08:11:18.428Z,39.77
2022-11-06T08:13:47.468Z,38.50
2022-11-06T08:16:16.749Z,44.50
2022-11-06T08:18:45.548Z,46.50
2022-11-06T08:21:15.658Z,41.97
2022-11-06T08:23:49.275Z,46.57
2022-11-06T08:26:18.497Z,46.03
2022-11-06T08:28:47.534Z,48.07
2022-11-06T08:31:16.191Z,45.30
2022-11-06T08:33:44.818Z,46.07
2022-11-06T08:36:14.924Z,66.50
2022-11-06T08:38:43.571Z,50.63
2022-11-06T08:41:13.598Z,47.40
2022-11-06T08:43:42.529Z,45.07
2022-11-06T08:46:12.164Z,44.60
2022-11-06T08:48:41.088Z,43.93
2022-11-06T08:51:10.146Z,44.07
2022-11-06T08:53:40.257Z,45.83
2022-11-06T08:56:09.674Z,49.37
2022-11-06T08:58:38.358Z,52.53
2022-11-06T09:01:07.262Z,47.47
2022-11-06T09:03:35.906Z,41.97
2022-11-06T09:06:07.288Z,43.20
2022-11-06T09:08:36.208Z,47.70
2022-11-06T09:11:10.268Z,42.40
2022-11-06T09:13:38.906Z,39.70
2022-11-06T09:16:15.621Z,43.47
2022-11-06T09:18:45.043Z,43.07
2022-11-06T09:21:13.695Z,51.20
2022-11-06T09:23:42.385Z,48.20
2022-11-06T09:26:12.413Z,50.73
2022-11-06T09:28:41.061Z,55.00
2022-11-06T09:31:10.205Z,59.40
2022-11-06T09:33:39.253Z,50.77
2022-11-06T09:36:08.770Z,45.90
2022-11-06T09:38:37.413Z,46.97
2022-11-06T09:41:07.028Z,52.80
2022-11-06T09:44:05.181Z,51.27
2022-11-06T09:46:37.233Z,47.87
2022-11-06T09:49:13.874Z,47.37
2022-11-06T09:51:50.188Z,42.20
2022-11-06T09:54:25.081Z,39.97
2022-11-06T09:56:59.852Z,40.63
2022-11-06T10:00:06.689Z,46.00
2022-11-06T10:02:43.642Z,102.45
2022-11-06T10:05:19.641Z,57.03
2022-11-06T10:07:51.891Z,49.43
2022-11-06T10:10:23.650Z,42.10
2022-11-06T10:13:17.319Z,49.67
2022-11-06T10:15:50.829Z,41.03
2022-11-06T10:18:31.318Z,45.20
2022-11-06T10:21:07.590Z,41.47
2022-11-06T10:23:45.664Z,38.23
2022-11-06T10:26:17.307Z,50.40
2022-11-06T10:29:17.830Z,51.73
2022-11-06T10:31:55.448Z,43.73
2022-11-06T10:34:31.143Z,44.20
2022-11-06T10:37:03.429Z,48.70
2022-11-06T10:39:35.182Z,46.60
2022-11-06T10:42:07.903Z,52.43
2022-11-06T10:44:40.758Z,46.43
2022-11-06T10:47:18.443Z,41.03
2022-11-06T10:49:51.373Z,35.03
2022-11-06T10:52:39.246Z,30.37
2022-11-06T10:55:36.082Z,26.77
2022-11-06T10:58:07.461Z,28.90
2022-11-06T11:00:37.360Z,28.77
2022-11-06T11:03:09.481Z,27.17
2022-11-06T11:05:43.283Z,62.20
2022-11-06T11:08:37.712Z,33.43
2022-11-06T11:11:11.486Z,112.75
2022-11-06T11:13:40.186Z,55.03
2022-11-06T11:16:15.807Z,34.87
2022-11-06T11:18:44.944Z,28.97
2022-11-06T11:21:26.437Z,27.00
2022-11-06T11:24:08.391Z,26.17
2022-11-06T11:26:40.857Z,22.70
2022-11-06T11:29:17.366Z,24.27
2022-11-06T11:31:51.706Z,24.27
2022-11-06T11:34:24.613Z,26.40
2022-11-06T11:36:58.746Z,89.95
2022-11-06T11:39:31.229Z,45.83
2022-11-06T11:42:24.175Z,30.20
2022-11-06T11:45:23.598Z,27.10
2022-11-06T11:47:53.466Z,132.85
2022-11-06T11:50:29.441Z,52.60
2022-11-06T11:53:09.685Z,35.37
2022-11-06T11:55:42.639Z,70.57
2022-11-06T11:58:22.413Z,52.92
2022-11-06T12:00:54.887Z,36.83
2022-11-06T12:03:27.205Z,30.83
2022-11-06T12:06:05.331Z,31.67
2022-11-06T12:08:36.201Z,27.20
2022-11-06T12:11:06.249Z,29.90
2022-11-06T12:13:38.764Z,31.20
2022-11-06T12:16:12.436Z,30.80
2022-11-06T12:18:44.305Z,30.03
2022-11-06T12:21:17.183Z,33.00
2022-11-06T12:23:53.545Z,26.33
2022-11-06T12:26:28.539Z,26.23
2022-11-06T12:29:46.103Z,26.23
2022-11-06T12:32:24.082Z,56.88
2022-11-06T12:35:00.958Z,37.17
2022-11-06T12:37:40.593Z,29.87
2022-11-06T12:40:25.475Z,27.13
2022-11-06T12:43:05.369Z,25.70
2022-11-06T12:45:47.720Z,27.67
2022-11-06T12:48:27.030Z,26.27
2022-11-06T12:51:06.545Z,22.50
2022-11-06T12:53:50.543Z,20.60
2022-11-06T12:56:25.337Z,21.67
2022-11-06T12:59:11.364Z,22.03
2022-11-06T13:01:56.177Z,21.83
2022-11-06T13:04:37.269Z,17.63
2022-11-06T13:07:37.003Z,18.77
2022-11-06T13:10:21.519Z,12.43
2022-11-06T13:13:01.276Z,11.47
2022-11-06T13:15:35.387Z,14.33
2022-11-06T13:18:14.935Z,11.60
2022-11-06T13:20:51.637Z,12.87
2022-11-06T13:23:26.845Z,13.07
2022-11-06T13:26:02.814Z,14.63
2022-11-06T13:28:36.551Z,13.30
2022-11-06T13:31:08.885Z,13.90
2022-11-06T13:33:44.622Z,14.47
2022-11-06T13:36:14.232Z,13.37
2022-11-06T13:38:49.032Z,14.50
2022-11-06T13:41:22.925Z,12.97
2022-11-06T13:43:58.700Z,14.77
2022-11-06T13:46:36.396Z,13.70
2022-11-06T13:49:16.509Z,13.97
2022-11-06T13:51:52.729Z,12.97
2022-11-06T13:54:36.020Z,14.60
2022-11-06T13:57:36.816Z,12.90
2022-11-06T14:00:19.340Z,14.57
2022-11-06T14:03:31.895Z,17.83
2022-11-06T14:06:04.224Z,23.43
2022-11-06T14:08:39.880Z,26.27
2022-11-06T14:11:14.256Z,22.40
2022-11-06T14:13:43.694Z,38.85
2022-11-06T14:16:29.423Z,21.13
2022-11-06T14:19:00.739Z,22.03
2022-11-06T14:21:48.551Z,20.70
2022-11-06T14:24:34.381Z,20.00
2022-11-06T14:27:07.175Z,18.53
2022-11-06T14:30:00.992Z,19.53
2022-11-06T14:32:45.370Z,19.97
2022-11-06T14:35:51.084Z,22.13
2022-11-06T14:38:35.564Z,19.30
2022-11-06T14:41:26.856Z,21.03
2022-11-06T14:43:58.321Z,23.03
2022-11-06T14:46:27.082Z,22.43
2022-11-06T14:49:06.891Z,81.00
2022-11-06T14:51:36.470Z,32.67
2022-11-06T14:54:24.883Z,44.23
2022-11-06T14:56:55.858Z,37.13
2022-11-06T14:59:33.219Z,51.53
2022-11-06T15:02:06.530Z,36.27
2022-11-06T15:04:37.753Z,35.27
2022-11-06T15:07:11.657Z,26.93
2022-11-06T15:09:48.163Z,22.77
2022-11-06T15:12:16.917Z,22.77
2022-11-06T15:15:00.655Z,21.63
2022-11-06T15:17:36.312Z,24.20
2022-11-06T15:20:24.931Z,26.50
2022-11-06T15:23:06.693Z,36.10
2022-11-06T15:25:36.239Z,40.67
2022-11-06T15:28:09.623Z,46.03
2022-11-06T15:30:48.086Z,44.43
2022-11-06T15:33:22.002Z,43.70
2022-11-06T15:35:52.477Z,57.53
2022-11-06T15:38:25.340Z,93.37
2022-11-06T15:40:56.379Z,108.57
2022-11-06T15:43:31.923Z,114.10
2022-11-06T15:46:09.137Z,130.87
2022-11-06T15:48:38.403Z,133.63
2022-11-06T15:51:22.396Z,137.50
2022-11-06T15:53:51.013Z,117.43
2022-11-06T15:56:23.467Z,98.70
2022-11-06T15:59:08.329Z,81.43
2022-11-06T16:01:37.491Z,62.90
2022-11-06T16:04:15.863Z,43.87
2022-11-06T16:06:47.757Z,43.27
2022-11-06T16:09:20.399Z,44.00
2022-11-06T16:11:52.322Z,60.70
2022-11-06T16:14:22.425Z,51.07
2022-11-06T16:16:53.178Z,48.33
2022-11-06T16:19:31.459Z,45.03
2022-11-06T16:22:07.641Z,59.53
2022-11-06T16:24:42.748Z,53.43
2022-11-06T16:27:12.684Z,58.97
2022-11-06T16:29:46.132Z,63.37
2022-11-06T16:32:18.875Z,64.47
2022-11-06T16:34:48.814Z,59.17
2022-11-06T16:37:38.917Z,62.87
2022-11-06T16:40:44.451Z,59.63
2022-11-06T16:43:16.598Z,58.10
2022-11-06T16:46:05.615Z,47.33
2022-11-06T16:48:38.314Z,49.57
2022-11-06T16:51:13.075Z,36.10
2022-11-06T16:53:56.932Z,36.50
2022-11-06T16:56:28.655Z,60.42
2022-11-06T16:59:04.219Z,42.70
2022-11-06T17:01:45.354Z,36.80
2022-11-06T17:04:24.311Z,38.30
2022-11-06T17:06:55.549Z,38.87
2022-11-06T17:09:35.762Z,37.47
2022-11-06T17:12:06.596Z,39.30
2022-11-06T17:14:35.157Z,36.20
2022-11-06T17:17:05.207Z,38.80
2022-11-06T17:19:34.314Z,37.00
2022-11-06T17:22:03.144Z,37.57
2022-11-06T17:24:37.594Z,44.17
2022-11-06T17:27:07.569Z,42.80
2022-11-06T17:29:37.357Z,40.63
2022-11-06T17:32:09.423Z,40.67
2022-11-06T17:34:38.149Z,48.87
2022-11-06T17:37:09.698Z,49.77
2022-11-06T17:39:40.092Z,57.83
2022-11-06T17:42:08.788Z,54.17
2022-11-06T17:44:38.535Z,55.17
2022-11-06T17:47:07.556Z,56.47
2022-11-06T17:49:36.323Z,56.70
2022-11-06T17:52:05.172Z,55.17
2022-11-06T17:54:37.425Z,63.00
2022-11-06T17:57:08.815Z,57.73
2022-11-06T17:59:39.949Z,56.17
2022-11-06T18:02:14.934Z,54.97
2022-11-06T18:04:43.924Z,57.60
2022-11-06T18:07:12.577Z,60.78
2022-11-06T18:09:41.174Z,57.60
2022-11-06T18:12:14.764Z,56.50
2022-11-06T18:14:43.454Z,69.47
2022-11-06T18:17:12.405Z,70.20
2022-11-06T18:19:41.948Z,68.10
2022-11-06T18:22:10.573Z,71.13
2022-11-06T18:24:40.354Z,61.67
2022-11-06T18:27:10.417Z,60.03
2022-11-06T18:29:39.052Z,59.73
2022-11-06T18:32:08.017Z,60.37
2022-11-06T18:34:36.684Z,63.03
2022-11-06T18:37:05.702Z,57.13
2022-11-06T18:39:41.728Z,65.83
2022-11-06T18:42:11.804Z,58.97
2022-11-06T18:44:41.492Z,60.93
2022-11-06T18:47:10.146Z,54.00
2022-11-06T18:49:39.013Z,52.57
2022-11-06T18:52:07.676Z,53.07
2022-11-06T18:54:36.368Z,53.83
2022-11-06T18:57:05.126Z,56.03
2022-11-06T18:59:35.273Z,55.93
2022-11-06T19:02:04.104Z,61.20
2022-11-06T19:04:32.950Z,65.33
2022-11-06T19:07:01.807Z,68.40
2022-11-06T19:09:31.448Z,69.10
2022-11-06T19:12:00.220Z,72.47
2022-11-06T19:14:28.881Z,69.50
2022-11-06T19:16:59.092Z,66.07
2022-11-06T19:19:27.804Z,68.47
2022-11-06T19:21:56.479Z,61.73
2022-11-06T19:24:25.248Z,62.37
2022-11-06T19:26:53.860Z,59.80
2022-11-06T19:29:23.218Z,59.73
2022-11-06T19:31:53.253Z,62.87
2022-11-06T19:34:25.669Z,65.57
2022-11-06T19:36:55.901Z,59.57
2022-11-06T19:39:26.687Z,62.27
2022-11-06T19:41:55.611Z,59.20
2022-11-06T19:44:24.439Z,58.67
2022-11-06T19:46:54.001Z,58.47
2022-11-06T19:49:24.093Z,60.60
2022-11-06T19:51:52.911Z,62.73
2022-11-06T19:54:21.669Z,62.73
2022-11-06T19:57:27.406Z,59.53
2022-11-06T19:59:43.726Z,63.20
2022-11-06T20:02:13.853Z,61.60
2022-11-06T20:04:44.014Z,64.07
2022-11-06T20:07:12.726Z,58.07
2022-11-06T20:09:41.603Z,61.50
2022-11-06T20:12:13.005Z,55.77
2022-11-06T20:14:41.690Z,59.60
2022-11-06T20:17:10.337Z,60.10
2022-11-06T20:19:38.917Z,59.13
2022-11-06T20:22:09.140Z,60.53
2022-11-06T20:24:38.084Z,62.90
2022-11-06T20:27:11.160Z,60.10
2022-11-06T20:29:40.810Z,59.50
2022-11-06T20:32:17.712Z,60.73
2022-11-06T20:34:47.711Z,66.37
2022-11-06T20:37:17.699Z,61.13
2022-11-06T20:39:46.267Z,64.67
2022-11-06T20:42:15.137Z,65.87
2022-11-06T20:44:43.810Z,65.30
2022-11-06T20:47:12.564Z,65.37
2022-11-06T20:49:43.203Z,66.37
2022-11-06T20:52:14.050Z,70.03
2022-11-06T20:54:47.514Z,66.43
2022-11-06T20:57:24.725Z,68.07
2022-11-06T20:59:53.314Z,68.53
2022-11-06T21:02:27.821Z,66.47
2022-11-06T21:04:56.706Z,60.43
2022-11-06T21:07:25.424Z,61.80
2022-11-06T21:09:55.698Z,57.33
2022-11-06T21:12:25.769Z,60.07
2022-11-06T21:14:54.553Z,59.80
2022-11-06T21:17:23.265Z,60.43
2022-11-06T21:19:52.230Z,62.37
2022-11-06T21:22:20.917Z,62.40
2022-11-06T21:24:49.538Z,65.77
2022-11-06T21:27:19.544Z,66.97
2022-11-06T21:29:48.108Z,65.57
2022-11-06T21:32:16.713Z,67.30
2022-11-06T21:34:45.533Z,68.83
2022-11-06T21:37:14.627Z,74.10
2022-11-06T21:39:43.322Z,65.00
2022-11-06T21:42:12.155Z,63.70
2022-11-06T21:44:42.363Z,67.50
2022-11-06T21:47:13.627Z,59.00
2022-11-06T21:49:55.973Z,65.43
2022-11-06T21:52:44.902Z,65.70
2022-11-06T21:55:30.822Z,64.00
2022-11-06T21:57:59.678Z,70.27
2022-11-06T22:00:30.405Z,72.37
2022-11-06T22:02:59.057Z,70.10
2022-11-06T22:05:27.679Z,72.20
2022-11-06T22:07:56.564Z,64.43
2022-11-06T22:10:25.366Z,64.07
2022-11-06T22:12:54.008Z,67.23
2022-11-06T22:15:22.845Z,63.50
2022-11-06T22:17:56.549Z,63.97
2022-11-06T22:20:25.858Z,62.27
2022-11-06T22:22:54.539Z,59.27
2022-11-06T22:25:25.545Z,65.00
2022-11-06T22:27:58.157Z,59.63
2022-11-06T22:30:26.833Z,63.70
2022-11-06T22:32:57.099Z,61.08
2022-11-06T22:35:32.087Z,61.73
2022-11-06T22:38:00.862Z,62.60
2022-11-06T22:40:29.473Z,64.70
2022-11-06T22:43:06.356Z,62.00
2022-11-06T22:45:35.417Z,64.73
2022-11-06T22:48:06.000Z,64.43
2022-11-06T22:50:36.476Z,69.73
2022-11-06T22:53:05.206Z,65.50
2022-11-06T22:55:37.253Z,65.53
2022-11-06T22:58:09.528Z,63.33
2022-11-06T23:00:38.226Z,61.90
2022-11-06T23:03:08.572Z,63.40
2022-11-06T23:05:41.087Z,65.03
2022-11-06T23:08:26.643Z,61.13
2022-11-06T23:10:56.195Z,63.90
2022-11-06T23:13:25.311Z,59.27
2022-11-06T23:16:03.800Z,61.60
2022-11-06T23:18:35.655Z,59.27
2022-11-06T23:21:04.783Z,61.73
2022-11-06T23:23:33.401Z,62.63
2022-11-06T23:26:12.360Z,68.20
2022-11-06T23:28:41.022Z,62.57
2022-11-06T23:31:10.999Z,62.30
2022-11-06T23:33:41.190Z,60.90
2022-11-06T23:36:12.643Z,58.40
2022-11-06T23:38:42.932Z,62.33
2022-11-06T23:41:32.648Z,59.93
2022-11-06T23:44:01.741Z,60.80
2022-11-06T23:46:32.351Z,61.50
2022-11-06T23:49:02.411Z,58.27
2022-11-06T23:51:31.067Z,60.90
2022-11-06T23:54:04.115Z,61.77
2022-11-06T23:56:36.667Z,59.80
2022-11-06T23:59:05.460Z,58.53
